Time;durP1;ratioP1;P1;durP2;ratioP2;P2;SDS_P1;SDS_P2;PMS_P1;PMS_P2;Temp;Humidity;BMP_temperature;BMP_pressure;BME280_temperature;BME280_humidity;BME280_pressure;Samples;Min_cycle;Max_cycle;Signal;HPM_P1;HPM_P2
2022/11/10 00:00:27;;;;;;;;;;;9.40;99.90;;;;;;5121940;27;20010;-71
2022/11/10 00:02:52;;;;;;;;;;;9.40;99.90;;;;;;5095581;28;19920;-72
2022/11/10 00:05:18;;;;;;;;;;;9.50;99.90;;;;;;5079463;28;19991;-71
2022/11/10 00:07:43;;;;;;;;;;;9.50;99.90;;;;;;5093040;28;19970;-73
2022/11/10 00:10:09;;;;;;;;;;;9.40;99.90;;;;;;5093604;28;19928;-73
2022/11/10 00:12:35;;;;;;;;;;;9.30;99.90;;;;;;5124753;27;19990;-75
2022/11/10 00:17:45;;;;;;;;;;;9.40;99.90;;;;;;5094192;28;19945;-72
2022/11/10 00:20:11;;;;;;;;;;;9.30;99.90;;;;;;5097688;28;19919;-72
2022/11/10 00:22:37;;;;;;;;;;;9.30;99.90;;;;;;5094645;28;19920;-73
2022/11/10 00:25:03;;;;;;;;;;;9.30;99.90;;;;;;5097000;28;19942;-71
2022/11/10 00:27:30;;;;;;;;;;;9.30;99.90;;;;;;5122312;27;21281;-73
2022/11/10 00:29:56;;;;;;;;;;;9.30;99.90;;;;;;5092021;28;19928;-72
2022/11/10 00:32:21;;;;;;;;;;;9.40;99.90;;;;;;5097802;28;19930;-74
2022/11/10 00:34:46;;;;;;;;;;;9.30;99.90;;;;;;5088048;28;19920;-72
2022/11/10 00:37:12;;;;;;;;;;;9.30;99.90;;;;;;5094601;28;20026;-73
2022/11/10 00:39:37;;;;;;;;;;;9.30;99.90;;;;;;5094783;28;19928;-74
2022/11/10 00:42:03;;;;;;;;;;;9.30;99.90;;;;;;5099533;28;20434;-72
2022/11/10 00:44:28;;;;;;;;;;;9.30;99.90;;;;;;5090898;28;20385;-72
2022/11/10 00:46:54;;;;;;;;;;;9.30;99.90;;;;;;5097235;28;20278;-71
2022/11/10 00:49:19;;;;;;;;;;;9.20;99.90;;;;;;5100616;28;20381;-70
2022/11/10 00:51:45;;;;;;;;;;;9.30;99.90;;;;;;5088593;28;20011;-71
2022/11/10 00:54:11;;;;;;;;;;;9.20;99.90;;;;;;5095865;28;19935;-71
2022/11/10 00:56:36;;;;;;;;;;;9.30;99.90;;;;;;5109537;27;19943;-71
2022/11/10 00:59:01;;;;;;;;;;;9.20;99.90;;;;;;5097679;27;19923;-70
2022/11/10 01:01:27;;;;;;;;;;;9.20;99.90;;;;;;5125790;27;20010;-72
2022/11/10 01:03:53;;;;;;;;;;;9.30;99.90;;;;;;5085148;27;19945;-76
2022/11/10 01:06:19;;;;;;;;;;;9.20;99.90;;;;;;5097909;28;19974;-72
2022/11/10 01:08:45;;;;;;;;;;;9.20;99.90;;;;;;5118926;27;19932;-73
2022/11/10 01:11:22;;;;;;;;;;;9.20;99.90;;;;;;5096251;27;19931;-72
2022/11/10 01:13:48;;;;;;;;;;;9.20;99.90;;;;;;5134470;27;20655;-73
2022/11/10 01:16:21;;;;;;;;;;;9.20;99.90;;;;;;5130916;27;19924;-71
2022/11/10 01:18:55;;;;;;;;;;;9.10;99.90;;;;;;5101705;28;20021;-75
2022/11/10 01:21:21;;;;;;;;;;;9.20;99.90;;;;;;5096964;27;19924;-72
2022/11/10 01:23:47;;;;;;;;;;;9.10;99.90;;;;;;5099477;27;20378;-72
2022/11/10 01:26:13;;;;;;;;;;;9.10;99.90;;;;;;5100523;27;19920;-72
2022/11/10 01:28:38;;;;;;;;;;;9.10;99.90;;;;;;5097566;27;20379;-72
2022/11/10 01:31:07;;;;;;;;;;;9.10;99.90;;;;;;5100745;27;19934;-73
2022/11/10 01:33:33;;;;;;;;;;;9.10;99.90;;;;;;5101367;27;19998;-73
2022/11/10 01:35:58;;;;;;;;;;;9.20;99.90;;;;;;5099356;27;20040;-71
2022/11/10 01:38:28;;;;;;;;;;;9.10;99.90;;;;;;5103979;27;20006;-73
2022/11/10 01:40:54;;;;;;;;;;;9.20;99.90;;;;;;5100638;27;19924;-73
2022/11/10 01:43:19;;;;;;;;;;;9.20;99.90;;;;;;5097117;27;19920;-74
2022/11/10 01:45:48;;;;;;;;;;;9.10;99.90;;;;;;5093815;28;20145;-74
2022/11/10 01:48:33;;;;;;;;;;;9.20;99.90;;;;;;5118881;27;19928;-73
2022/11/10 01:51:04;;;;;;;;;;;9.10;99.90;;;;;;5096610;27;20015;-73
2022/11/10 01:53:31;;;;;;;;;;;9.20;99.90;;;;;;5128982;27;19963;-74
2022/11/10 01:55:57;;;;;;;;;;;9.20;99.90;;;;;;5133127;27;19942;-75
2022/11/10 01:58:25;;;;;;;;;;;9.20;99.90;;;;;;5105819;27;19924;-73
2022/11/10 02:00:50;;;;;;;;;;;9.20;99.90;;;;;;5079485;28;19920;-74
2022/11/10 02:03:23;;;;;;;;;;;9.30;99.90;;;;;;5097781;27;20337;-73
2022/11/10 02:05:49;;;;;;;;;;;9.30;99.90;;;;;;5094175;27;19924;-72
2022/11/10 02:08:15;;;;;;;;;;;9.30;99.90;;;;;;5080543;27;20267;-72
2022/11/10 02:10:41;;;;;;;;;;;9.30;99.90;;;;;;5098052;27;19973;-73
2022/11/10 02:13:06;;;;;;;;;;;9.30;99.90;;;;;;5110815;27;19920;-74
2022/11/10 02:15:32;;;;;;;;;;;9.40;99.90;;;;;;5093312;27;19920;-74
2022/11/10 02:17:57;;;;;;;;;;;9.40;99.90;;;;;;5098215;27;19926;-72
2022/11/10 02:20:23;;;;;;;;;;;9.50;99.90;;;;;;5102160;27;20381;-70
2022/11/10 02:22:48;;;;;;;;;;;9.60;99.90;;;;;;5082217;28;19971;-71
2022/11/10 02:25:16;;;;;;;;;;;9.50;99.90;;;;;;5096194;27;19924;-74
2022/11/10 02:27:42;;;;;;;;;;;9.60;99.90;;;;;;5098089;27;19959;-74
2022/11/10 02:30:07;;;;;;;;;;;9.60;99.90;;;;;;5096387;27;19970;-73
2022/11/10 02:32:33;;;;;;;;;;;9.60;99.90;;;;;;5089141;27;19942;-72
2022/11/10 02:34:58;;;;;;;;;;;9.70;99.90;;;;;;5100001;28;20355;-73
2022/11/10 02:37:24;;;;;;;;;;;9.60;99.90;;;;;;5098312;27;20026;-71
2022/11/10 02:39:49;;;;;;;;;;;9.60;99.90;;;;;;5100247;27;19923;-75
2022/11/10 02:42:15;;;;;;;;;;;9.60;99.90;;;;;;5101473;27;19980;-74
2022/11/10 02:44:40;;;;;;;;;;;9.70;99.90;;;;;;5097132;28;19927;-71
2022/11/10 02:47:06;;;;;;;;;;;9.70;99.90;;;;;;5100071;27;19928;-72
2022/11/10 02:49:32;;;;;;;;;;;9.70;99.90;;;;;;5128204;27;19932;-73
2022/11/10 02:51:57;;;;;;;;;;;9.60;99.90;;;;;;5090887;27;20374;-73
2022/11/10 02:54:23;;;;;;;;;;;9.60;99.90;;;;;;5093762;27;20350;-75
2022/11/10 02:56:48;;;;;;;;;;;9.60;99.90;;;;;;5098322;27;20366;-74
2022/11/10 02:59:14;;;;;;;;;;;9.60;99.90;;;;;;5098754;27;19928;-74
2022/11/10 03:01:39;;;;;;;;;;;9.60;99.90;;;;;;5092011;28;19928;-71
2022/11/10 03:04:05;;;;;;;;;;;9.70;99.90;;;;;;5094290;28;19921;-72
2022/11/10 03:06:30;;;;;;;;;;;9.60;99.90;;;;;;5094445;27;19985;-71
2022/11/10 03:08:56;;;;;;;;;;;9.60;99.90;;;;;;5130606;27;19938;-73
2022/11/10 03:11:22;;;;;;;;;;;9.70;99.90;;;;;;5093268;28;19984;-72
2022/11/10 03:13:47;;;;;;;;;;;9.60;99.90;;;;;;5098979;27;19924;-72
2022/11/10 03:16:13;;;;;;;;;;;9.60;99.90;;;;;;5079999;28;19961;-77
2022/11/10 03:18:38;;;;;;;;;;;9.60;99.90;;;;;;5097430;27;20370;-74
2022/11/10 03:21:04;;;;;;;;;;;9.60;99.90;;;;;;5076858;28;19934;-72
2022/11/10 03:23:29;;;;;;;;;;;9.60;99.90;;;;;;5111578;27;20066;-72
2022/11/10 03:25:55;;;;;;;;;;;9.60;99.90;;;;;;5097778;27;19924;-74
2022/11/10 03:28:20;;;;;;;;;;;9.40;99.90;;;;;;5096531;27;19934;-73
2022/11/10 03:30:46;;;;;;;;;;;9.40;99.90;;;;;;5093816;28;19920;-71
2022/11/10 03:33:11;;;;;;;;;;;9.50;99.90;;;;;;5099290;27;19924;-72
2022/11/10 03:35:37;;;;;;;;;;;9.50;99.90;;;;;;5130432;27;19951;-75
2022/11/10 03:38:02;;;;;;;;;;;9.40;99.90;;;;;;5103398;27;20017;-73
2022/11/10 03:40:28;;;;;;;;;;;9.40;99.90;;;;;;5096428;27;20283;-73
2022/11/10 03:42:53;;;;;;;;;;;9.40;99.90;;;;;;5075077;28;19939;-73
2022/11/10 03:45:19;;;;;;;;;;;9.40;99.90;;;;;;5130001;27;19984;-72
2022/11/10 03:47:45;;;;;;;;;;;9.30;99.90;;;;;;5099434;27;19924;-73
2022/11/10 03:50:11;;;;;;;;;;;9.40;99.90;;;;;;5094149;28;19948;-74
2022/11/10 03:52:41;;;;;;;;;;;9.30;99.90;;;;;;5100490;28;20422;-75
2022/11/10 03:55:08;;;;;;;;;;;9.40;99.90;;;;;;5131454;27;19928;-72
2022/11/10 03:57:33;;;;;;;;;;;9.30;99.90;;;;;;5100761;28;19979;-73
2022/11/10 03:59:59;;;;;;;;;;;9.30;99.90;;;;;;5098433;28;22432;-72
2022/11/10 04:02:24;;;;;;;;;;;9.40;99.90;;;;;;5099085;28;19973;-73
2022/11/10 04:10:18;;;;;;;;;;;9.50;99.90;;;;;;5129276;27;20290;-71
2022/11/10 04:15:43;;;;;;;;;;;9.50;99.90;;;;;;5132998;27;19920;-72
2022/11/10 04:18:19;;;;;;;;;;;9.60;99.90;;;;;;5133346;27;20020;-74
2022/11/10 04:20:48;;;;;;;;;;;9.60;99.90;;;;;;5093104;28;19928;-75
2022/11/10 04:23:26;;;;;;;;;;;9.60;99.90;;;;;;5080419;28;19964;-71
2022/11/10 04:28:36;;;;;;;;;;;9.50;99.90;;;;;;5098728;28;20045;-71
2022/11/10 04:31:02;;;;;;;;;;;9.40;99.90;;;;;;5100149;28;20039;-73
2022/11/10 04:33:27;;;;;;;;;;;9.50;99.90;;;;;;5129654;27;19920;-72
2022/11/10 04:35:53;;;;;;;;;;;9.50;99.90;;;;;;5104610;27;20425;-75
2022/11/10 04:38:18;;;;;;;;;;;9.50;99.90;;;;;;5103591;27;19928;-75
2022/11/10 04:40:44;;;;;;;;;;;9.40;99.90;;;;;;5103867;27;19924;-72
2022/11/10 04:43:09;;;;;;;;;;;9.50;99.90;;;;;;5101552;27;19919;-72
2022/11/10 04:45:35;;;;;;;;;;;9.60;99.90;;;;;;5097940;28;19931;-72
2022/11/10 04:48:00;;;;;;;;;;;9.60;99.90;;;;;;5101695;27;20393;-72
2022/11/10 04:50:25;;;;;;;;;;;9.60;99.90;;;;;;5103255;27;19927;-74
2022/11/10 04:52:51;;;;;;;;;;;9.60;99.90;;;;;;5100640;27;19952;-71
2022/11/10 04:55:16;;;;;;;;;;;9.60;99.90;;;;;;5108583;27;19965;-73
2022/11/10 04:57:42;;;;;;;;;;;9.60;99.90;;;;;;5118135;27;19924;-72
2022/11/10 05:00:09;;;;;;;;;;;9.70;99.90;;;;;;5108727;27;20002;-72
2022/11/10 05:02:35;;;;;;;;;;;9.60;99.90;;;;;;5102612;27;19953;-74
2022/11/10 05:05:02;;;;;;;;;;;9.60;99.90;;;;;;5101533;28;20218;-75
2022/11/10 05:07:27;;;;;;;;;;;9.70;99.90;;;;;;5131624;27;19924;-71
2022/11/10 05:09:53;;;;;;;;;;;9.60;99.90;;;;;;5084859;27;19938;-76
2022/11/10 05:12:18;;;;;;;;;;;9.60;99.90;;;;;;5100795;28;19927;-74
2022/11/10 05:14:44;;;;;;;;;;;9.70;99.90;;;;;;5103965;27;20391;-74
2022/11/10 05:17:09;;;;;;;;;;;9.70;99.90;;;;;;5082024;28;19931;-74
2022/11/10 05:19:35;;;;;;;;;;;9.70;99.90;;;;;;5111856;28;20318;-73
2022/11/10 05:22:00;;;;;;;;;;;9.60;99.90;;;;;;5111470;28;20282;-72
2022/11/10 05:24:25;;;;;;;;;;;9.60;99.90;;;;;;5103649;27;19924;-73
2022/11/10 05:26:51;;;;;;;;;;;9.60;99.90;;;;;;5109044;28;20335;-73
2022/11/10 05:29:17;;;;;;;;;;;9.60;99.90;;;;;;5108556;27;19935;-72
2022/11/10 05:31:42;;;;;;;;;;;9.70;99.90;;;;;;5088481;28;19920;-73
2022/11/10 05:34:07;;;;;;;;;;;9.60;99.90;;;;;;5100739;27;20014;-73
2022/11/10 05:36:33;;;;;;;;;;;9.70;99.90;;;;;;5097589;27;20363;-72
2022/11/10 05:38:58;;;;;;;;;;;9.60;99.90;;;;;;5129022;27;19931;-73
2022/11/10 05:41:24;;;;;;;;;;;9.60;99.90;;;;;;5096695;27;20164;-72
2022/11/10 05:43:49;;;;;;;;;;;9.50;99.90;;;;;;5103769;27;19924;-75
2022/11/10 05:46:15;;;;;;;;;;;9.50;99.90;;;;;;5102031;27;20443;-71
2022/11/10 05:48:40;;;;;;;;;;;9.60;99.90;;;;;;5095238;27;20525;-73
2022/11/10 05:51:06;;;;;;;;;;;9.50;99.90;;;;;;5085598;27;19928;-73
2022/11/10 05:53:31;;;;;;;;;;;9.60;99.90;;;;;;5098512;28;19920;-73
2022/11/10 05:55:57;;;;;;;;;;;9.60;99.90;;;;;;5099129;27;20097;-74
2022/11/10 05:58:22;;;;;;;;;;;9.50;99.90;;;;;;5099191;27;20156;-74
2022/11/10 06:00:48;;;;;;;;;;;9.40;99.90;;;;;;5088889;28;19985;-69
2022/11/10 06:03:15;;;;;;;;;;;9.40;99.90;;;;;;5096917;27;19928;-74
2022/11/10 06:05:40;;;;;;;;;;;9.40;99.90;;;;;;5128276;27;20011;-72
2022/11/10 06:08:06;;;;;;;;;;;9.40;99.90;;;;;;5094881;27;20481;-73
2022/11/10 06:10:34;;;;;;;;;;;9.50;99.90;;;;;;5130431;27;19973;-72
2022/11/10 06:13:07;;;;;;;;;;;9.50;99.90;;;;;;5100667;27;19939;-74
2022/11/10 06:15:32;;;;;;;;;;;9.30;99.90;;;;;;5100233;27;19942;-74
2022/11/10 06:18:01;;;;;;;;;;;9.30;99.90;;;;;;5097731;28;19920;-73
2022/11/10 06:20:26;;;;;;;;;;;9.40;99.90;;;;;;5084528;28;19938;-73
2022/11/10 06:22:57;;;;;;;;;;;9.30;99.90;;;;;;5099729;27;19928;-76
2022/11/10 06:25:23;;;;;;;;;;;9.30;99.90;;;;;;5130123;27;20177;-71
2022/11/10 06:27:48;;;;;;;;;;;9.40;99.90;;;;;;5098036;27;20014;-72
2022/11/10 06:30:14;;;;;;;;;;;9.30;99.90;;;;;;5102731;27;19968;-74
2022/11/10 06:32:43;;;;;;;;;;;9.30;99.90;;;;;;5096122;27;19924;-74
2022/11/10 06:35:08;;;;;;;;;;;9.40;99.90;;;;;;5133588;27;19920;-74
2022/11/10 06:37:34;;;;;;;;;;;9.40;99.90;;;;;;5098829;27;19924;-74
2022/11/10 06:39:59;;;;;;;;;;;9.40;99.90;;;;;;5102955;28;20012;-74
2022/11/10 06:42:25;;;;;;;;;;;9.40;99.90;;;;;;5104122;27;19920;-72
2022/11/10 06:44:50;;;;;;;;;;;9.40;99.90;;;;;;5108221;28;19920;-74
2022/11/10 06:47:16;;;;;;;;;;;9.30;99.90;;;;;;5101774;27;20026;-71
2022/11/10 06:49:42;;;;;;;;;;;9.40;99.90;;;;;;5130969;27;19931;-75
2022/11/10 06:52:07;;;;;;;;;;;9.30;99.90;;;;;;5104983;27;19927;-73
2022/11/10 06:54:33;;;;;;;;;;;9.30;99.90;;;;;;5093420;27;20072;-75
2022/11/10 06:56:58;;;;;;;;;;;9.30;99.90;;;;;;5105097;28;20282;-70
2022/11/10 06:59:24;;;;;;;;;;;9.40;99.90;;;;;;5105918;27;19920;-73
2022/11/10 07:01:49;;;;;;;;;;;9.40;99.90;;;;;;5098907;27;20351;-76
2022/11/10 07:04:15;;;;;;;;;;;9.40;99.90;;;;;;5087964;28;20437;-74
2022/11/10 07:06:40;;;;;;;;;;;9.30;99.90;;;;;;5084927;28;19924;-77
2022/11/10 07:09:06;;;;;;;;;;;9.50;99.90;;;;;;5086814;28;20370;-73
2022/11/10 07:11:31;;;;;;;;;;;9.50;99.90;;;;;;5102442;27;19924;-74
2022/11/10 07:13:57;;;;;;;;;;;9.50;99.90;;;;;;5104171;27;19998;-75
2022/11/10 07:16:22;;;;;;;;;;;9.40;99.90;;;;;;5131155;27;19939;-74
2022/11/10 07:18:48;;;;;;;;;;;9.50;99.90;;;;;;5100854;28;19924;-75
2022/11/10 07:21:13;;;;;;;;;;;9.50;99.90;;;;;;5099177;28;20012;-74
2022/11/10 07:23:39;;;;;;;;;;;9.60;99.90;;;;;;5102450;27;20510;-77
2022/11/10 07:26:04;;;;;;;;;;;9.50;99.90;;;;;;5096791;28;19932;-73
2022/11/10 07:28:30;;;;;;;;;;;9.60;99.90;;;;;;5101499;27;19931;-74
2022/11/10 07:30:55;;;;;;;;;;;9.60;99.90;;;;;;5101708;27;19928;-73
2022/11/10 07:33:21;;;;;;;;;;;9.50;99.90;;;;;;5130570;27;20411;-75
2022/11/10 07:35:54;;;;;;;;;;;9.60;99.90;;;;;;5082832;28;19926;-75
2022/11/10 07:38:20;;;;;;;;;;;9.60;99.90;;;;;;5127882;27;19951;-75
2022/11/10 07:40:49;;;;;;;;;;;9.60;99.90;;;;;;5100892;27;19919;-76
2022/11/10 07:43:14;;;;;;;;;;;9.50;99.90;;;;;;5098000;28;20424;-75
2022/11/10 07:45:39;;;;;;;;;;;9.60;99.90;;;;;;5104728;27;19919;-76
2022/11/10 07:48:05;;;;;;;;;;;9.60;99.90;;;;;;5099119;27;20417;-74
2022/11/10 07:50:35;;;;;;;;;;;9.70;99.90;;;;;;5104654;28;19930;-72
2022/11/10 07:53:08;;;;;;;;;;;9.70;99.90;;;;;;5108417;28;20019;-78
2022/11/10 07:55:35;;;;;;;;;;;9.70;99.90;;;;;;5097997;28;19920;-73
2022/11/10 07:58:00;;;;;;;;;;;9.80;99.90;;;;;;5087580;28;20374;-73
2022/11/10 08:00:28;;;;;;;;;;;9.70;99.90;;;;;;5074427;28;19920;-75
2022/11/10 08:02:53;;;;;;;;;;;9.90;99.90;;;;;;5124644;27;19942;-76
2022/11/10 08:05:19;;;;;;;;;;;10.00;99.90;;;;;;5103758;28;19924;-73
2022/11/10 08:07:44;;;;;;;;;;;9.90;99.90;;;;;;5089612;28;20385;-75
2022/11/10 08:10:10;;;;;;;;;;;10.10;99.90;;;;;;5134395;27;19924;-77
2022/11/10 08:12:35;;;;;;;;;;;10.10;99.90;;;;;;5104195;28;20010;-72
2022/11/10 08:15:02;;;;;;;;;;;10.10;99.90;;;;;;5080763;28;19926;-75
2022/11/10 08:17:27;;;;;;;;;;;10.10;99.90;;;;;;5085209;28;20350;-78
2022/11/10 08:19:53;;;;;;;;;;;10.20;99.90;;;;;;5099120;28;19931;-76
2022/11/10 08:22:18;;;;;;;;;;;10.30;99.90;;;;;;5133423;27;19985;-75
2022/11/10 08:24:44;;;;;;;;;;;10.50;99.90;;;;;;5101804;28;20259;-78
2022/11/10 08:27:09;;;;;;;;;;;10.60;99.90;;;;;;5099273;28;20265;-73
2022/11/10 08:29:35;;;;;;;;;;;10.80;99.90;;;;;;5095221;28;20308;-78
2022/11/10 08:32:00;;;;;;;;;;;10.70;99.90;;;;;;5141471;27;20337;-76
2022/11/10 08:34:25;;;;;;;;;;;10.80;99.90;;;;;;5091860;28;19959;-74
2022/11/10 08:36:52;;;;;;;;;;;10.90;99.90;;;;;;5107294;28;19923;-75
2022/11/10 08:39:17;;;;;;;;;;;11.10;99.90;;;;;;5092114;28;19920;-74
2022/11/10 08:41:43;;;;;;;;;;;11.10;99.90;;;;;;5123935;27;19970;-71
2022/11/10 08:44:08;;;;;;;;;;;11.10;99.90;;;;;;5090277;28;19920;-76
2022/11/10 08:46:34;;;;;;;;;;;11.20;99.90;;;;;;5090687;28;20359;-77
2022/11/10 08:49:00;;;;;;;;;;;11.20;99.90;;;;;;5106821;28;19967;-75
2022/11/10 08:51:25;;;;;;;;;;;11.30;99.90;;;;;;5088759;28;19924;-77
2022/11/10 08:53:51;;;;;;;;;;;11.20;99.90;;;;;;5096833;28;19963;-77
2022/11/10 08:56:16;;;;;;;;;;;11.20;99.90;;;;;;5108409;28;19919;-73
2022/11/10 08:58:42;;;;;;;;;;;11.30;99.90;;;;;;5110727;28;19927;-76
2022/11/10 09:01:08;;;;;;;;;;;11.20;99.90;;;;;;5088909;28;19926;-73
2022/11/10 09:03:33;;;;;;;;;;;11.20;99.90;;;;;;5129294;27;20006;-75
2022/11/10 09:05:59;;;;;;;;;;;11.20;99.90;;;;;;5107256;28;19963;-77
2022/11/10 09:08:24;;;;;;;;;;;11.30;99.90;;;;;;5110461;28;20278;-80
2022/11/10 09:10:50;;;;;;;;;;;11.30;99.90;;;;;;5132810;27;20385;-72
2022/11/10 09:13:22;;;;;;;;;;;11.40;99.90;;;;;;5119059;28;19926;-74
2022/11/10 09:15:48;;;;;;;;;;;11.30;99.90;;;;;;5108306;28;19920;-78
2022/11/10 09:18:16;;;;;;;;;;;11.50;99.90;;;;;;5110875;28;20275;-78
2022/11/10 09:20:41;;;;;;;;;;;11.60;99.90;;;;;;5102730;28;20264;-73
2022/11/10 09:23:08;;;;;;;;;;;11.70;99.90;;;;;;5093461;28;20002;-72
2022/11/10 09:25:34;;;;;;;;;;;11.80;99.90;;;;;;5098306;28;19920;-77
2022/11/10 09:28:00;;;;;;;;;;;11.80;99.90;;;;;;5102774;28;19920;-76
2022/11/10 09:30:27;;;;;;;;;;;11.80;99.90;;;;;;5098820;28;19920;-70
2022/11/10 09:32:56;;;;;;;;;;;11.80;99.90;;;;;;5097918;28;19963;-78
2022/11/10 09:35:22;;;;;;;;;;;11.90;99.90;;;;;;5128211;27;19966;-77
2022/11/10 09:37:48;;;;;;;;;;;11.90;99.90;;;;;;5084604;28;20410;-71
2022/11/10 09:40:17;;;;;;;;;;;12.10;99.90;;;;;;5129244;27;19963;-75
2022/11/10 09:42:45;;;;;;;;;;;12.20;99.90;;;;;;5107887;27;19919;-77
2022/11/10 09:45:23;;;;;;;;;;;12.30;99.90;;;;;;5126404;27;20004;-71
2022/11/10 09:47:59;;;;;;;;;;;12.40;99.90;;;;;;5104445;28;20453;-76
2022/11/10 09:50:57;;;;;;;;;;;12.40;99.90;;;;;;5131838;27;19934;-74
2022/11/10 09:53:41;;;;;;;;;;;12.50;99.90;;;;;;5067308;28;20185;-76
2022/11/10 09:56:10;;;;;;;;;;;12.40;99.90;;;;;;5098533;28;19959;-75
2022/11/10 09:58:43;;;;;;;;;;;12.50;99.90;;;;;;5076393;28;19963;-76
2022/11/10 10:01:12;;;;;;;;;;;12.40;99.90;;;;;;5104089;28;19919;-77
2022/11/10 10:03:40;;;;;;;;;;;12.50;99.90;;;;;;5113795;28;19919;-76
2022/11/10 10:06:08;;;;;;;;;;;12.60;99.90;;;;;;5100388;28;19920;-74
2022/11/10 10:08:36;;;;;;;;;;;12.60;99.90;;;;;;5091711;28;19963;-72
2022/11/10 10:11:25;;;;;;;;;;;12.80;99.90;;;;;;5111362;28;19921;-69
2022/11/10 10:13:59;;;;;;;;;;;12.80;99.90;;;;;;5110038;27;19939;-77
2022/11/10 10:16:31;;;;;;;;;;;12.80;99.90;;;;;;5106712;28;19977;-72
2022/11/10 10:19:09;;;;;;;;;;;12.80;99.90;;;;;;5147474;27;19919;-77
2022/11/10 10:22:04;;;;;;;;;;;12.90;99.90;;;;;;5131151;27;19971;-72
2022/11/10 10:24:31;;;;;;;;;;;13.10;99.90;;;;;;5037798;28;20372;-72
2022/11/10 10:26:58;;;;;;;;;;;13.20;99.90;;;;;;5092176;28;20388;-77
2022/11/10 10:29:43;;;;;;;;;;;13.20;99.90;;;;;;5099864;28;20336;-74
2022/11/10 10:32:13;;;;;;;;;;;13.30;99.90;;;;;;5090596;28;19932;-74
2022/11/10 10:34:39;;;;;;;;;;;13.50;99.90;;;;;;5092562;28;20283;-75
2022/11/10 10:37:18;;;;;;;;;;;13.50;99.90;;;;;;5110832;28;19934;-74
2022/11/10 10:39:45;;;;;;;;;;;13.50;99.90;;;;;;5109083;28;19924;-75
2022/11/10 10:42:30;;;;;;;;;;;13.50;99.90;;;;;;5098474;28;19920;-69
2022/11/10 10:45:11;;;;;;;;;;;13.60;99.90;;;;;;5110242;28;19968;-68
2022/11/10 10:47:38;;;;;;;;;;;13.60;99.90;;;;;;5109039;28;19945;-75
2022/11/10 10:50:16;;;;;;;;;;;13.70;99.90;;;;;;5147053;27;20290;-76
2022/11/10 10:52:42;;;;;;;;;;;13.70;99.90;;;;;;5091365;28;19920;-75
2022/11/10 10:55:10;;;;;;;;;;;13.70;99.90;;;;;;5125998;27;20278;-72
2022/11/10 10:57:35;;;;;;;;;;;13.80;99.90;;;;;;5112352;28;19927;-68
2022/11/10 11:00:17;;;;;;;;;;;13.70;99.90;;;;;;5111803;28;20443;-77
2022/11/10 11:02:49;;;;;;;;;;;13.70;99.90;;;;;;5126123;27;19967;-73
2022/11/10 11:05:16;;;;;;;;;;;13.70;99.90;;;;;;5076758;28;19927;-74
2022/11/10 11:07:53;;;;;;;;;;;13.70;99.90;;;;;;5111185;28;19974;-75
2022/11/10 11:10:19;;;;;;;;;;;13.70;99.90;;;;;;5116480;27;20282;-72
2022/11/10 11:12:45;;;;;;;;;;;13.70;99.90;;;;;;5128793;27;20328;-70
2022/11/10 11:15:14;;;;;;;;;;;13.80;99.90;;;;;;5094105;28;19929;-74
2022/11/10 11:17:52;;;;;;;;;;;13.90;99.90;;;;;;5096948;28;19934;-72
2022/11/10 11:20:17;;;;;;;;;;;13.90;99.90;;;;;;5097761;28;20346;-75
2022/11/10 11:22:55;;;;;;;;;;;13.90;99.90;;;;;;5090892;28;20046;-75
2022/11/10 11:25:30;;;;;;;;;;;13.80;99.90;;;;;;5092134;28;19920;-74
2022/11/10 11:28:16;;;;;;;;;;;13.70;99.90;;;;;;5110872;28;19920;-74
2022/11/10 11:30:54;;;;;;;;;;;13.90;99.90;;;;;;5090342;28;19920;-69
2022/11/10 11:33:27;;;;;;;;;;;13.80;99.90;;;;;;5090140;28;20020;-70
2022/11/10 11:36:02;;;;;;;;;;;13.90;99.90;;;;;;5097819;27;19972;-72
2022/11/10 11:38:32;;;;;;;;;;;13.90;99.90;;;;;;5136445;27;20286;-71
2022/11/10 11:41:08;;;;;;;;;;;13.90;99.90;;;;;;5101617;28;19920;-77
2022/11/10 11:43:37;;;;;;;;;;;13.90;99.90;;;;;;5106163;28;19985;-73
2022/11/10 11:46:02;;;;;;;;;;;14.00;99.90;;;;;;5102376;28;19920;-74
2022/11/10 11:48:38;;;;;;;;;;;14.00;99.90;;;;;;5074531;28;20372;-71
2022/11/10 11:51:10;;;;;;;;;;;13.90;99.90;;;;;;5090262;28;19920;-75
2022/11/10 11:53:44;;;;;;;;;;;13.90;99.90;;;;;;5126936;27;20041;-68
2022/11/10 11:56:45;;;;;;;;;;;13.90;99.90;;;;;;5104231;28;19927;-74
2022/11/10 11:59:27;;;;;;;;;;;13.90;99.90;;;;;;5031866;28;19952;-74
2022/11/10 12:02:22;;;;;;;;;;;13.90;99.90;;;;;;5084124;28;20141;-74
2022/11/10 12:04:54;;;;;;;;;;;13.90;99.90;;;;;;5146140;27;20380;-71
2022/11/10 12:07:41;;;;;;;;;;;13.90;99.90;;;;;;5099023;28;20278;-73
2022/11/10 12:10:26;;;;;;;;;;;13.80;99.90;;;;;;5100090;28;19935;-74
2022/11/10 12:13:18;;;;;;;;;;;13.90;99.90;;;;;;5124789;27;19924;-72
2022/11/10 12:15:58;;;;;;;;;;;13.90;99.90;;;;;;5090272;28;19924;-68
2022/11/10 12:18:30;;;;;;;;;;;13.90;99.90;;;;;;5095151;28;19920;-75
2022/11/10 12:20:55;;;;;;;;;;;13.90;99.90;;;;;;5131152;27;20101;-74
2022/11/10 12:23:30;;;;;;;;;;;13.90;99.90;;;;;;5107957;28;20019;-70
2022/11/10 12:25:59;;;;;;;;;;;13.90;99.90;;;;;;5076863;28;19931;-74
2022/11/10 12:28:29;;;;;;;;;;;13.90;99.90;;;;;;5089897;28;20233;-69
2022/11/10 12:30:57;;;;;;;;;;;13.90;99.90;;;;;;5094625;28;19970;-73
2022/11/10 12:33:25;;;;;;;;;;;14.00;99.90;;;;;;5091350;28;19920;-76
2022/11/10 12:35:53;;;;;;;;;;;13.90;99.90;;;;;;5109665;28;20728;-75
2022/11/10 12:38:26;;;;;;;;;;;14.10;99.90;;;;;;5094978;28;19932;-74
2022/11/10 12:41:03;;;;;;;;;;;14.30;99.90;;;;;;5091546;28;19920;-71
2022/11/10 12:43:49;;;;;;;;;;;14.60;99.90;;;;;;5121817;28;20006;-73
2022/11/10 12:46:15;;;;;;;;;;;14.60;99.90;;;;;;5090012;28;19972;-75
2022/11/10 12:48:52;;;;;;;;;;;14.60;99.90;;;;;;5110191;28;19997;-68
2022/11/10 12:51:50;;;;;;;;;;;14.60;99.90;;;;;;5099637;28;19968;-72
2022/11/10 12:54:18;;;;;;;;;;;14.70;99.90;;;;;;5060458;28;19927;-73
2022/11/10 12:56:50;;;;;;;;;;;14.70;99.90;;;;;;5128771;27;20014;-73
2022/11/10 12:59:18;;;;;;;;;;;14.70;99.90;;;;;;5134560;27;19928;-75
2022/11/10 13:01:45;;;;;;;;;;;14.80;99.90;;;;;;5104118;28;19989;-74
2022/11/10 13:04:13;;;;;;;;;;;14.70;99.90;;;;;;5094193;28;19920;-74
2022/11/10 13:06:44;;;;;;;;;;;14.70;99.90;;;;;;5093987;28;20006;-69
2022/11/10 13:09:20;;;;;;;;;;;14.60;99.90;;;;;;5128178;27;19931;-74
2022/11/10 13:12:02;;;;;;;;;;;14.50;99.90;;;;;;5127957;27;20340;-71
2022/11/10 13:14:28;;;;;;;;;;;14.50;99.90;;;;;;5093758;28;20443;-70
2022/11/10 13:16:55;;;;;;;;;;;14.40;99.90;;;;;;5116437;27;19920;-73
2022/11/10 13:19:23;;;;;;;;;;;14.30;99.90;;;;;;5134813;27;19920;-70
2022/11/10 13:21:49;;;;;;;;;;;14.20;99.90;;;;;;5099852;28;19924;-73
2022/11/10 13:24:21;;;;;;;;;;;14.10;99.90;;;;;;5106584;28;20298;-73
2022/11/10 13:26:49;;;;;;;;;;;14.00;99.90;;;;;;5102674;28;19920;-74
2022/11/10 13:29:30;;;;;;;;;;;14.00;99.90;;;;;;5097325;28;20327;-76
2022/11/10 13:32:14;;;;;;;;;;;14.00;99.90;;;;;;5086706;28;20010;-76
2022/11/10 13:34:44;;;;;;;;;;;14.00;99.90;;;;;;5115581;27;20291;-74
2022/11/10 13:37:28;;;;;;;;;;;14.00;99.90;;;;;;5111660;28;20034;-72
2022/11/10 13:40:12;;;;;;;;;;;14.00;99.90;;;;;;5118514;27;19931;-72
2022/11/10 13:42:38;;;;;;;;;;;13.90;99.90;;;;;;5119043;27;19966;-74
2022/11/10 13:45:22;;;;;;;;;;;14.00;99.90;;;;;;5123846;27;19963;-71
2022/11/10 13:47:53;;;;;;;;;;;13.90;99.90;;;;;;5109344;28;20234;-77
2022/11/10 13:50:18;;;;;;;;;;;13.90;99.90;;;;;;5097839;28;19931;-75
2022/11/10 13:52:58;;;;;;;;;;;13.90;99.90;;;;;;5092424;28;20286;-73
2022/11/10 13:55:33;;;;;;;;;;;13.90;99.90;;;;;;5110493;27;19966;-73
2022/11/10 13:58:03;;;;;;;;;;;13.80;99.90;;;;;;5096105;28;19965;-72
2022/11/10 14:00:31;;;;;;;;;;;13.90;99.90;;;;;;5109852;28;19920;-75
2022/11/10 14:02:59;;;;;;;;;;;13.80;99.90;;;;;;5112058;28;19920;-75
2022/11/10 14:05:25;;;;;;;;;;;13.80;99.90;;;;;;5110271;28;20245;-73
2022/11/10 14:07:51;;;;;;;;;;;13.80;99.90;;;;;;5092542;28;19927;-75
2022/11/10 14:10:18;;;;;;;;;;;13.90;99.90;;;;;;5099144;28;19973;-72
2022/11/10 14:12:54;;;;;;;;;;;13.80;99.90;;;;;;5101090;28;20002;-72
2022/11/10 14:15:22;;;;;;;;;;;13.90;99.90;;;;;;5108611;28;20298;-73
2022/11/10 14:17:52;;;;;;;;;;;13.80;99.90;;;;;;5092445;28;19924;-73
2022/11/10 14:20:22;;;;;;;;;;;13.90;99.90;;;;;;5093085;28;20378;-74
2022/11/10 14:22:48;;;;;;;;;;;13.80;99.90;;;;;;5092267;28;20413;-74
2022/11/10 14:25:43;;;;;;;;;;;13.80;99.90;;;;;;5090356;28;19920;-74
2022/11/10 14:28:25;;;;;;;;;;;13.80;99.90;;;;;;5080602;28;20342;-76
2022/11/10 14:30:52;;;;;;;;;;;13.80;99.90;;;;;;5102304;28;19920;-74
2022/11/10 14:33:18;;;;;;;;;;;13.70;99.90;;;;;;5091483;28;20285;-74
2022/11/10 14:35:47;;;;;;;;;;;13.70;99.90;;;;;;5097442;28;19924;-74
2022/11/10 14:38:15;;;;;;;;;;;13.80;99.90;;;;;;5142860;27;20019;-73
2022/11/10 14:40:41;;;;;;;;;;;13.70;99.90;;;;;;5126830;27;20383;-74
2022/11/10 14:43:23;;;;;;;;;;;13.70;99.90;;;;;;5092264;28;19967;-73
2022/11/10 14:45:49;;;;;;;;;;;13.60;99.90;;;;;;5092573;28;19966;-71